Thomasville, NC (27360)

9:00 AM EST on February 01, 2015 (GMT -0500)
Breckenridge | Change Station
CLOSE
Current Station
Personal Weather Station
Location: Thomasville, NC
Elevation: 922 ft
Nearby Weather Stations

Elev 922 ft 35.88 °N, 80.05 °W | Updated 15 seconds ago

Overcast
Overcast
38.8 °F
Feels Like 39 °F
N
0.0
Wind Variable Wind from SSE
Gusts 1.0 mph

Today
High -- | Low -- °F
--% Chance of Precip.
Yesterday
High -- | Low -- °F
Precip. -- in
7:20 AM 5:47 PM
Waxing Gibbous, 95% visible
Pressure 30.25 in
Visibility 10.0 miles
Clouds Mostly Cloudy 9000 ft
Overcast 11000 ft
Windchill 39 °F
Dew Point 24 °F
Humidity 55%
Rainfall 0.00 in
Snow Depth Not available.
UV 0 out of 12
Pollen 3.00 out of 12
Air Quality Not available.
Flu Activity Not available.
METAR KEXX 011335Z AUTO 23003KT 10SM BKN090 OVC110 04/M05 A3025 RMK AO2 T00381050

More Conditions Fewer Conditions

Pressure 30.25 in
Visibility 10.0 miles
Clouds Mostly Cloudy 9000 ft
Overcast 11000 ft
Windchill 39 °F
Dew Point 24 °F
Humidity 55%
Rainfall 0.00 in
Snow Depth Not available.
UV 0 out of 12
Pollen 3.00 out of 12
Air Quality Not available.
Flu Activity Not available.
METAR KEXX 011335Z AUTO 23003KT 10SM BKN090 OVC110 04/M05 A3025 RMK AO2 T00381050

More Conditions Fewer Conditions

10-Day Weather Forecast

Almanac

Astronomy

Feb. 01, 2015 Rise Set
Actual Time
Civil Twilight
Nautical Twilight
Astronomical Twilight
Moon
Length of Visible Light
Length of Day
Tomorrow will be .
, % of the Moon is Illuminated

Today's Extremes

State Highs State Lows

Community

WunderPhotos

Upload Photos

1,792,363 photos uploaded!

WunderBlogs® & News

Nearby

Air Quality

  Air Quality AQ Index Pollutant
Not available.

Snow Depth

Station Depth Elevation

Earthquake Activity

City Distance Mag. Time & Date
Minimum magnitude displayed is 2.5.

Coastal Water Temperatures

Place Temperature

Nearby Weather Stations